KDLN/DLN METAR and TAF weather

Enter ICAO airport designator
Station Type Date Time Source
KDLN METAR 2019/08/19 07:53 UTC NOAA

KDLN 190753Z AUTO 18005KT 10SM CLR 15/01 A2997 RMK AO2 SLP095 T01500011


Station Type Date Time Source
KDLN Decoded METAR 2019/08/19 07:53 UTC NOAA

Station name not available
Aug 19, 2019 - 03:53 AM EDT / 2019.08.19 0753 UTC
Wind: from the S (180 degrees) at 6 MPH (5 KT):0
Visibility: 10 mile(s):0
Sky conditions: clear
Temperature: 59.0 F (15.0 C)
Dew Point: 34.0 F (1.1 C)
Relative Humidity: 38%
Pressure (altimeter): 29.97 in. Hg (1014 hPa)
ob: KDLN 190753Z AUTO 18005KT 10SM CLR 15/01 A2997 RMK AO2 SLP095 T01500011
cycle: 8

Station Type Date Time Source
KDLN TAF UTC NOAA

Error!

Example: see airport list